Time;durP1;ratioP1;P1;durP2;ratioP2;P2;SDS_P1;SDS_P2;PMS_P1;PMS_P2;Temp;Humidity;BMP_temperature;BMP_pressure;BME280_temperature;BME280_humidity;BME280_pressure;Samples;Min_cycle;Max_cycle;Signal;HPM_P1;HPM_P2
2023/04/12 00:01:45;;;;;;;6.97;2.92;;;;;;;-139.84;100.00;61778.28;5041664;28;20074;-69
2023/04/12 00:04:13;;;;;;;6.45;2.70;;;;;;;-139.84;100.00;61778.28;5043604;28;20025;-69
2023/04/12 00:06:39;;;;;;;8.70;3.03;;;;;;;-139.84;100.00;61778.28;5045033;28;20131;-70
2023/04/12 00:09:07;;;;;;;7.25;2.70;;;;;;;-139.84;100.00;61778.28;5029971;28;20147;-70
2023/04/12 00:11:32;;;;;;;6.25;2.47;;;;;;;-139.84;100.00;61778.28;5044480;28;20029;-70
2023/04/12 00:13:58;;;;;;;11.10;2.72;;;;;;;-139.84;100.00;61778.28;5046656;28;20030;-70
2023/04/12 00:16:23;;;;;;;7.28;2.30;;;;;;;-139.84;100.00;61778.28;5048204;28;20052;-70
2023/04/12 00:18:50;;;;;;;12.00;2.72;;;;;;;-139.84;100.00;61778.28;5042497;28;20033;-70
2023/04/12 00:21:19;;;;;;;8.85;2.90;;;;;;;-139.84;100.00;61778.28;5042861;28;20384;-69
2023/04/12 00:23:46;;;;;;;6.07;1.70;;;;;;;-139.84;100.00;61778.28;5044487;28;20527;-69
2023/04/12 00:26:11;;;;;;;;;;;;;;;-139.84;100.00;61778.28;5025654;28;20411;-69
2023/04/12 00:28:37;;;;;;;7.05;2.30;;;;;;;-139.84;100.00;61778.28;5047536;28;19912;-70
2023/04/12 00:31:03;;;;;;;5.40;2.10;;;;;;;-139.84;100.00;61778.28;5046147;28;20397;-70
2023/04/12 00:33:29;;;;;;;;;;;;;;;-139.84;100.00;61778.28;5043207;28;20035;-70
2023/04/12 00:35:54;;;;;;;8.27;2.47;;;;;;;-139.84;100.00;61778.28;5021899;28;19921;-69
2023/04/12 00:38:20;;;;;;;11.48;2.25;;;;;;;-139.84;100.00;61778.28;5045169;28;20109;-70
2023/04/12 00:40:46;;;;;;;6.25;2.17;;;;;;;-139.84;100.00;61778.28;5047585;28;20122;-68
2023/04/12 00:43:14;;;;;;;12.13;2.40;;;;;;;-139.84;100.00;61778.28;5046650;28;20051;-67
2023/04/12 00:45:40;;;;;;;7.53;2.03;;;;;;;-139.84;100.00;61778.28;5042980;28;20476;-68
2023/04/12 00:48:07;;;;;;;5.95;1.95;;;;;;;-139.84;100.00;61778.28;5046929;28;20032;-68
2023/04/12 00:50:34;;;;;;;5.30;2.03;;;;;;;-139.84;100.00;61778.28;5023363;28;20095;-68
2023/04/12 00:52:59;;;;;;;6.55;2.20;;;;;;;-139.84;100.00;61778.28;5044452;28;20071;-70
2023/04/12 00:55:28;;;;;;;11.15;2.47;;;;;;;-139.84;100.00;61778.28;5043819;28;20041;-69
2023/04/12 00:57:55;;;;;;;7.75;2.17;;;;;;;-139.84;100.00;61778.28;5044612;28;20033;-69
2023/04/12 01:00:21;;;;;;;9.05;2.72;;;;;;;-139.84;100.00;61778.28;5042973;28;20472;-69
2023/04/12 01:02:47;;;;;;;11.18;2.20;;;;;;;-139.84;100.00;61778.28;5043102;28;20021;-70
2023/04/12 01:05:20;;;;;;;6.13;2.08;;;;;;;-139.84;100.00;61778.28;5048450;28;20065;-68
2023/04/12 01:08:05;;;;;;;9.50;2.45;;;;;;;-139.84;100.00;61778.28;5043760;28;20032;-68
2023/04/12 01:10:52;;;;;;;6.05;2.10;;;;;;;-139.84;100.00;61778.28;5045131;28;20075;-69
2023/04/12 01:13:24;;;;;;;4.38;1.55;;;;;;;-139.84;100.00;61778.28;5043227;28;20425;-68
2023/04/12 01:16:27;;;;;;;7.57;2.20;;;;;;;-139.84;100.00;61778.28;5032654;28;20428;-70
2023/04/12 01:18:58;;;;;;;3.25;1.80;;;;;;;-139.84;100.00;61778.28;5045250;28;20048;-69
2023/04/12 01:21:52;;;;;;;7.50;1.90;;;;;;;-139.84;100.00;61778.28;5046534;28;20025;-68
2023/04/12 01:25:06;;;;;;;5.25;2.20;;;;;;;-139.84;100.00;61778.28;5047168;28;20449;-68
2023/04/12 01:27:53;;;;;;;5.50;1.98;;;;;;;-139.84;100.00;61778.28;5025167;28;20476;-68
2023/04/12 01:30:19;;;;;;;3.47;1.77;;;;;;;-139.84;100.00;61778.28;5044549;28;20029;-69
2023/04/12 01:32:50;;;;;;;3.63;1.63;;;;;;;-139.84;100.00;61778.28;5009271;28;20044;-69
2023/04/12 01:35:18;;;;;;;3.85;1.98;;;;;;;-139.84;100.00;61778.28;5028850;28;20059;-69
2023/04/12 01:37:44;;;;;;;7.97;2.22;;;;;;;-139.84;100.00;61778.28;5046756;28;20025;-68
2023/04/12 01:40:11;;;;;;;6.32;1.70;;;;;;;-139.84;100.00;61778.28;5032239;28;20060;-69
2023/04/12 01:42:37;;;;;;;4.18;1.73;;;;;;;-139.84;100.00;61778.28;5046047;28;20133;-69
2023/04/12 01:45:02;;;;;;;4.38;2.05;;;;;;;-139.84;100.00;61778.28;5031609;28;20037;-69
2023/04/12 01:47:29;;;;;;;3.35;1.45;;;;;;;-139.84;100.00;61778.28;5043682;28;20075;-68
2023/04/12 01:50:07;;;;;;;8.53;2.23;;;;;;;-139.84;100.00;61778.28;5034723;28;20411;-69
2023/04/12 01:52:37;;;;;;;5.53;1.90;;;;;;;-139.84;100.00;61778.28;5042330;28;20287;-68
2023/04/12 01:55:05;;;;;;;4.78;1.88;;;;;;;-139.84;100.00;61778.28;5030390;28;20037;-68
2023/04/12 01:57:32;;;;;;;3.00;1.55;;;;;;;-139.84;100.00;61778.28;5043635;28;20507;-69
2023/04/12 01:59:58;;;;;;;2.97;1.98;;;;;;;-139.84;100.00;61778.28;5042770;28;20420;-68
2023/04/12 02:02:25;;;;;;;6.03;1.65;;;;;;;-139.84;100.00;61778.28;5043591;28;20095;-69
2023/04/12 02:04:52;;;;;;;8.75;2.30;;;;;;;-139.84;100.00;61778.28;5041994;28;20041;-69
2023/04/12 02:07:19;;;;;;;;;;;;;;;-139.84;100.00;61778.28;5044024;28;20025;-69
2023/04/12 02:09:45;;;;;;;4.85;1.63;;;;;;;-139.84;100.00;61778.28;5044425;28;20042;-69
2023/04/12 02:12:11;;;;;;;5.65;2.03;;;;;;;-139.84;100.00;61778.28;5042806;28;20537;-68
2023/04/12 02:14:37;;;;;;;46.75;3.55;;;;;;;-139.84;100.00;61778.28;5028476;28;20032;-68
2023/04/12 02:17:03;;;;;;;5.80;2.08;;;;;;;-139.84;100.00;61778.28;5047410;28;20036;-68
2023/04/12 02:19:30;;;;;;;4.00;2.05;;;;;;;-139.84;100.00;61778.28;5032772;28;20036;-69
2023/04/12 02:21:55;;;;;;;4.40;2.20;;;;;;;-139.84;100.00;61778.28;5040137;28;20022;-69
2023/04/12 02:24:21;;;;;;;4.05;2.15;;;;;;;-139.84;100.00;61778.28;5046809;28;20040;-76
2023/04/12 02:26:48;;;;;;;6.00;2.22;;;;;;;-139.84;100.00;61778.28;5047301;28;20037;-74
2023/04/12 02:29:14;;;;;;;7.75;2.30;;;;;;;-139.84;100.00;61778.28;5053256;28;20043;-75
2023/04/12 02:31:40;;;;;;;5.07;2.00;;;;;;;-139.84;100.00;61778.28;5048008;28;20020;-75
2023/04/12 02:34:06;;;;;;;6.05;2.10;;;;;;;-139.84;100.00;61778.28;5052669;28;20036;-74
2023/04/12 02:36:32;;;;;;;6.70;3.08;;;;;;;-139.84;100.00;61778.28;5043677;28;20713;-75
2023/04/12 02:38:57;;;;;;;6.55;1.90;;;;;;;-139.84;100.00;61778.28;5047513;28;20041;-75
2023/04/12 02:41:23;;;;;;;4.60;1.95;;;;;;;-139.84;100.00;61778.28;5028030;28;20036;-75
2023/04/12 02:43:49;;;;;;;4.68;1.85;;;;;;;-139.84;100.00;61778.28;5051570;28;20554;-75
2023/04/12 02:46:20;;;;;;;3.70;1.90;;;;;;;-139.84;100.00;61778.28;5053277;28;20407;-75
2023/04/12 02:48:46;;;;;;;2.20;1.33;;;;;;;-139.84;100.00;61778.28;5027377;28;20040;-75
2023/04/12 02:51:11;;;;;;;4.75;2.00;;;;;;;-139.84;100.00;61778.28;5048521;28;20064;-75
2023/04/12 02:53:37;;;;;;;7.72;2.00;;;;;;;-139.84;100.00;61778.28;5049478;28;20509;-74
2023/04/12 02:56:04;;;;;;;5.53;1.95;;;;;;;-139.84;100.00;61778.28;5046618;28;20029;-74
2023/04/12 02:58:29;;;;;;;;;;;;;;;-139.84;100.00;61778.28;5043187;28;20570;-75
2023/04/12 03:00:56;;;;;;;3.28;2.08;;;;;;;-139.84;100.00;61778.28;5042654;28;19913;-75
2023/04/12 03:03:24;;;;;;;7.97;2.15;;;;;;;-139.84;100.00;61778.28;5036778;28;20033;-74
2023/04/12 03:05:51;;;;;;;4.35;1.95;;;;;;;-139.84;100.00;61778.28;5044041;28;20409;-74
2023/04/12 03:08:17;;;;;;;;;;;;;;;-139.84;100.00;61778.28;5041891;28;20491;-73
2023/04/12 03:10:42;;;;;;;7.13;1.90;;;;;;;-139.84;100.00;61778.28;5040944;28;19952;-74
2023/04/12 03:13:08;;;;;;;5.28;2.45;;;;;;;-139.84;100.00;61778.28;5044901;28;20025;-74
2023/04/12 03:15:33;;;;;;;4.78;2.00;;;;;;;-139.84;100.00;61778.28;5041619;28;20040;-74
2023/04/12 03:17:59;;;;;;;5.55;2.17;;;;;;;-139.84;100.00;61778.28;5034122;28;20030;-76
2023/04/12 03:20:24;;;;;;;2.72;2.38;;;;;;;-139.84;100.00;61778.28;5025635;28;20029;-75
2023/04/12 03:22:50;;;;;;;5.72;2.20;;;;;;;-139.84;100.00;61778.28;5042741;28;20038;-74
2023/04/12 03:25:19;;;;;;;5.55;2.05;;;;;;;-139.84;100.00;61778.28;5020771;28;20393;-75
2023/04/12 03:27:45;;;;;;;2.17;1.75;;;;;;;-139.84;100.00;61778.28;5041906;28;20125;-75
2023/04/12 03:30:10;;;;;;;5.32;2.17;;;;;;;-139.84;100.00;61778.28;5032776;28;20469;-74
2023/04/12 03:32:43;;;;;;;6.25;1.70;;;;;;;-139.84;100.00;61778.28;5042167;28;20100;-75
2023/04/12 03:35:09;;;;;;;3.80;2.20;;;;;;;-139.84;100.00;61778.28;5044683;28;20033;-75
2023/04/12 03:37:34;;;;;;;7.78;2.35;;;;;;;-139.84;100.00;61778.28;5042478;28;20033;-75
2023/04/12 03:40:00;;;;;;;6.18;2.25;;;;;;;-139.84;100.00;61778.28;5026639;28;20095;-74
2023/04/12 03:42:27;;;;;;;6.07;2.00;;;;;;;-139.84;100.00;61778.28;5041988;28;20025;-74
2023/04/12 03:44:53;;;;;;;;;;;;;;;-139.84;100.00;61778.28;5047807;28;20094;-75
2023/04/12 03:47:19;;;;;;;3.80;1.90;;;;;;;-139.84;100.00;61778.28;5037703;28;19920;-75
2023/04/12 03:49:46;;;;;;;3.95;1.95;;;;;;;-139.84;100.00;61778.28;5045946;28;20036;-75
2023/04/12 03:52:11;;;;;;;5.38;2.08;;;;;;;-139.84;100.00;61778.28;5030264;28;20044;-75
2023/04/12 03:54:37;;;;;;;13.20;2.17;;;;;;;-139.84;100.00;61778.28;5030800;28;20473;-75
2023/04/12 03:57:02;;;;;;;4.50;2.00;;;;;;;-139.84;100.00;61778.28;5050796;28;20047;-75
2023/04/12 03:59:28;;;;;;;3.10;1.70;;;;;;;-139.84;100.00;61778.28;5042604;28;20085;-76
2023/04/12 04:01:55;;;;;;;4.38;1.88;;;;;;;-139.84;100.00;61778.28;5061751;28;20082;-76
2023/04/12 04:04:21;;;;;;;5.25;1.67;;;;;;;-139.84;100.00;61778.28;5062370;28;20025;-74
2023/04/12 04:06:48;;;;;;;6.63;2.30;;;;;;;-139.84;100.00;61778.28;5056014;28;20114;-74
2023/04/12 04:09:14;;;;;;;3.72;2.03;;;;;;;-139.84;100.00;61778.28;5042779;28;20029;-75
2023/04/12 04:11:40;;;;;;;5.68;2.30;;;;;;;-139.84;100.00;61778.28;5055349;28;20064;-76
2023/04/12 04:14:07;;;;;;;2.50;1.38;;;;;;;-139.84;100.00;61778.28;5057056;28;20044;-75
2023/04/12 04:16:32;;;;;;;;;;;;;;;-139.84;100.00;61778.28;5061116;28;20039;-75
2023/04/12 04:18:57;;;;;;;4.75;1.60;;;;;;;-139.84;100.00;61778.28;5053016;28;20400;-75
2023/04/12 04:21:23;;;;;;;3.72;1.90;;;;;;;-139.84;100.00;61778.28;5054070;28;20041;-75
2023/04/12 04:23:50;;;;;;;4.68;1.70;;;;;;;-139.84;100.00;61778.28;5043983;28;20043;-75
2023/04/12 04:26:16;;;;;;;2.28;1.90;;;;;;;-139.84;100.00;61778.28;5052564;28;20033;-75
2023/04/12 04:28:45;;;;;;;3.93;2.30;;;;;;;-139.84;100.00;61778.28;5053345;28;20029;-74
2023/04/12 04:31:11;;;;;;;3.63;1.80;;;;;;;-139.84;100.00;61778.28;5056036;28;20052;-75
2023/04/12 04:33:38;;;;;;;4.32;2.60;;;;;;;-139.84;100.00;61778.28;5045599;28;20031;-73
2023/04/12 04:36:05;;;;;;;5.10;1.88;;;;;;;-139.84;100.00;61778.28;5046369;28;20071;-75
2023/04/12 04:38:31;;;;;;;;;;;;;;;-139.84;100.00;61778.28;5034510;28;20029;-74
2023/04/12 04:41:01;;;;;;;5.95;2.35;;;;;;;-139.84;100.00;61778.28;5039118;28;20288;-73
2023/04/12 04:43:32;;;;;;;6.45;2.25;;;;;;;-139.84;100.00;61778.28;5042911;28;20483;-74
2023/04/12 04:45:59;;;;;;;2.78;2.55;;;;;;;-139.84;100.00;61778.28;5045895;28;20107;-75
2023/04/12 04:48:25;;;;;;;6.90;2.35;;;;;;;-139.84;100.00;61778.28;5046387;28;20028;-74
2023/04/12 04:50:51;;;;;;;4.03;2.17;;;;;;;-139.84;100.00;61778.28;5049123;28;20048;-74
2023/04/12 04:53:19;;;;;;;2.00;1.80;;;;;;;-139.84;100.00;61778.28;5042847;28;20032;-74
2023/04/12 04:55:46;;;;;;;3.13;2.20;;;;;;;-139.84;100.00;61778.28;5047531;28;20029;-74
2023/04/12 04:58:12;;;;;;;4.90;2.00;;;;;;;-139.84;100.00;61778.28;5043119;28;20103;-74
2023/04/12 05:00:37;;;;;;;2.35;2.08;;;;;;;-139.84;100.00;61778.28;5042817;28;20595;-74
2023/04/12 05:03:03;;;;;;;5.85;2.28;;;;;;;-139.84;100.00;61778.28;5032026;28;20036;-74
2023/04/12 05:05:29;;;;;;;4.60;2.63;;;;;;;-139.84;100.00;61778.28;5041122;28;20057;-73
2023/04/12 05:07:55;;;;;;;4.93;3.10;;;;;;;-139.84;100.00;61778.28;5044092;28;20044;-74
2023/04/12 05:10:21;;;;;;;5.75;3.45;;;;;;;-139.84;100.00;61778.28;5042001;28;20022;-74
2023/04/12 05:12:47;;;;;;;5.63;4.00;;;;;;;-139.84;100.00;61778.28;5046735;28;20056;-74
2023/04/12 05:15:12;;;;;;;9.20;4.28;;;;;;;-139.84;100.00;61778.28;5024500;28;20063;-74
2023/04/12 05:17:37;;;;;;;7.80;4.88;;;;;;;-139.84;100.00;61778.28;5039422;28;20044;-74
2023/04/12 05:20:06;;;;;;;5.97;3.88;;;;;;;-139.84;100.00;61778.28;5031865;28;20029;-75
2023/04/12 05:22:32;;;;;;;9.95;5.35;;;;;;;-139.84;100.00;61778.28;5037279;28;20021;-74
2023/04/12 05:24:57;;;;;;;6.53;3.80;;;;;;;-139.84;100.00;61778.28;5048256;28;20036;-75
2023/04/12 05:27:23;;;;;;;10.82;5.30;;;;;;;-139.84;100.00;61778.28;5047405;28;20401;-74
2023/04/12 05:29:49;;;;;;;6.85;5.05;;;;;;;-139.84;100.00;61778.28;5049492;28;20028;-75
2023/04/12 05:32:15;;;;;;;11.63;4.72;;;;;;;-139.84;100.00;61778.28;5045818;28;20082;-74
2023/04/12 05:34:41;;;;;;;12.80;4.28;;;;;;;-139.84;100.00;61778.28;5050026;28;20428;-75
2023/04/12 05:37:06;;;;;;;16.15;5.40;;;;;;;-139.84;100.00;61778.28;5051371;28;20032;-74
2023/04/12 05:39:32;;;;;;;8.85;4.53;;;;;;;-139.84;100.00;61778.28;5049466;28;20624;-74
2023/04/12 05:41:57;;;;;;;10.68;5.25;;;;;;;-139.84;100.00;61778.28;5043044;28;20032;-75
2023/04/12 05:44:24;;;;;;;9.23;5.15;;;;;;;-139.84;100.00;61778.28;5045106;28;20357;-75
2023/04/12 05:46:50;;;;;;;9.05;4.30;;;;;;;-139.84;100.00;61778.28;5043951;28;20064;-74
2023/04/12 05:49:15;;;;;;;16.75;5.05;;;;;;;-139.84;100.00;61778.28;5044058;28;20079;-74
2023/04/12 05:51:40;;;;;;;11.93;4.90;;;;;;;-139.84;100.00;61778.28;5020638;28;20025;-74
2023/04/12 05:54:06;;;;;;;10.40;5.45;;;;;;;-139.84;100.00;61778.28;5047920;28;20418;-74
2023/04/12 05:56:32;;;;;;;9.57;5.25;;;;;;;-139.84;100.00;61778.28;5024637;28;20070;-74
2023/04/12 05:59:00;;;;;;;9.52;4.75;;;;;;;-139.84;100.00;61778.28;5041341;28;20058;-74
2023/04/12 06:01:30;;;;;;;15.48;5.28;;;;;;;-139.84;100.00;61778.28;5041932;28;20033;-74
2023/04/12 06:03:56;;;;;;;16.90;5.60;;;;;;;-139.84;100.00;61778.28;5041056;28;20026;-75
2023/04/12 06:06:23;;;;;;;16.98;5.10;;;;;;;-139.84;100.00;61778.28;5028991;28;20053;-75
2023/04/12 06:08:49;;;;;;;13.68;4.00;;;;;;;-139.84;100.00;61778.28;5048125;28;20029;-75
2023/04/12 06:11:15;;;;;;;18.73;5.15;;;;;;;-139.84;100.00;61778.28;5027719;28;20060;-75
2023/04/12 06:13:40;;;;;;;19.92;4.72;;;;;;;-139.84;100.00;61778.28;5044320;28;20027;-76
2023/04/12 06:16:06;;;;;;;23.02;4.25;;;;;;;-139.84;100.00;61778.28;5044179;28;20095;-76
2023/04/12 06:18:32;;;;;;;15.52;3.90;;;;;;;-139.84;100.00;61778.28;5047611;28;20033;-77
2023/04/12 06:20:57;;;;;;;19.75;3.33;;;;;;;-139.84;100.00;61778.28;5042455;28;20090;-76
2023/04/12 06:23:22;;;;;;;17.70;4.35;;;;;;;-139.84;100.00;61778.28;5039295;28;20477;-76
2023/04/12 06:25:49;;;;;;;19.13;3.42;;;;;;;-139.84;100.00;61778.28;5048618;28;20439;-74
2023/04/12 06:28:15;;;;;;;21.38;3.83;;;;;;;-139.84;100.00;61778.28;5043969;28;20116;-75
2023/04/12 06:30:40;;;;;;;24.23;3.40;;;;;;;-139.84;100.00;61778.28;5044459;28;20049;-75
2023/04/12 06:33:05;;;;;;;19.45;3.80;;;;;;;-139.84;100.00;61778.28;5042279;28;20064;-74
2023/04/12 06:35:31;;;;;;;27.70;4.18;;;;;;;-139.84;100.00;61778.28;5042212;28;20102;-75
2023/04/12 06:37:56;;;;;;;25.73;3.53;;;;;;;-139.84;100.00;61778.28;5024895;28;20029;-75
2023/04/12 06:40:22;;;;;;;29.00;5.63;;;;;;;-139.84;100.00;61778.28;5038228;28;20378;-76
2023/04/12 06:42:47;;;;;;;18.23;3.50;;;;;;;-139.84;100.00;61778.28;5043026;28;20041;-75
2023/04/12 06:45:13;;;;;;;26.83;5.68;;;;;;;-139.84;100.00;61778.28;5029490;28;20223;-75
2023/04/12 06:47:38;;;;;;;26.73;4.57;;;;;;;-139.84;100.00;61778.28;5031406;28;20453;-75
2023/04/12 06:50:05;;;;;;;23.80;4.38;;;;;;;-139.84;100.00;61778.28;5040347;28;20025;-75
2023/04/12 06:52:31;;;;;;;27.35;4.25;;;;;;;-139.84;100.00;61778.28;5040719;28;20026;-75
2023/04/12 06:54:57;;;;;;;28.23;4.78;;;;;;;-139.84;100.00;61778.28;5043465;28;20025;-75
2023/04/12 06:57:23;;;;;;;29.83;4.10;;;;;;;-139.84;100.00;61778.28;5040090;28;20028;-75
2023/04/12 06:59:48;;;;;;;26.17;3.63;;;;;;;-139.84;100.00;61778.28;5027050;28;20025;-75
2023/04/12 07:02:14;;;;;;;30.17;4.13;;;;;;;-139.84;100.00;61778.28;5039810;28;20806;-75
2023/04/12 07:04:40;;;;;;;40.73;4.30;;;;;;;-139.84;100.00;61778.28;5043656;28;20029;-75
2023/04/12 07:07:05;;;;;;;27.42;4.15;;;;;;;-139.84;100.00;61778.28;5037770;28;20788;-75
2023/04/12 07:09:31;;;;;;;43.90;4.63;;;;;;;-139.84;100.00;61778.28;5041249;28;20033;-75
2023/04/12 07:11:57;;;;;;;20.58;4.35;;;;;;;-139.84;100.00;61778.28;5041989;28;20027;-75
2023/04/12 07:14:23;;;;;;;22.40;3.70;;;;;;;-139.84;100.00;61778.28;5043185;28;20025;-76
2023/04/12 07:16:48;;;;;;;29.10;4.20;;;;;;;-139.84;100.00;61778.28;5040591;28;20108;-75
2023/04/12 07:19:13;;;;;;;32.93;4.20;;;;;;;-139.84;100.00;61778.28;5040313;28;20104;-75
2023/04/12 07:21:39;;;;;;;31.33;4.53;;;;;;;-139.84;100.00;61778.28;5040930;28;20029;-75
2023/04/12 07:24:04;;;;;;;32.17;4.40;;;;;;;-139.84;100.00;61778.28;5040756;28;20029;-75
2023/04/12 07:26:30;;;;;;;27.77;5.15;;;;;;;-139.84;100.00;61778.28;5041633;28;20031;-75
2023/04/12 07:28:55;;;;;;;26.90;4.18;;;;;;;-139.84;100.00;61778.28;5028677;28;20023;-75
2023/04/12 07:31:22;;;;;;;44.57;5.13;;;;;;;-139.84;100.00;61778.28;5041570;28;20116;-75
2023/04/12 07:33:47;;;;;;;43.05;5.72;;;;;;;-139.84;100.00;61778.28;5030107;28;20021;-75
2023/04/12 07:36:15;;;;;;;37.43;4.47;;;;;;;-139.84;100.00;61778.28;5045329;28;20055;-76
2023/04/12 07:38:41;;;;;;;18.63;4.45;;;;;;;-139.84;100.00;61778.28;5044500;28;20499;-76
2023/04/12 07:41:07;;;;;;;36.20;4.77;;;;;;;-139.84;100.00;61778.28;5041844;28;20095;-76
2023/04/12 07:43:32;;;;;;;30.33;3.97;;;;;;;-139.84;100.00;61778.28;5041072;28;20033;-76
2023/04/12 07:45:58;;;;;;;38.97;4.87;;;;;;;-139.84;100.00;61778.28;5046967;28;20531;-75
2023/04/12 07:48:23;;;;;;;29.63;4.82;;;;;;;-139.84;100.00;61778.28;5045945;28;20423;-76
2023/04/12 07:50:49;;;;;;;35.47;5.60;;;;;;;-139.84;100.00;61778.28;5044344;28;20052;-76
2023/04/12 07:53:22;;;;;;;42.17;5.07;;;;;;;-139.84;100.00;61778.28;5045146;28;20025;-76
2023/04/12 07:55:47;;;;;;;41.40;7.65;;;;;;;-139.84;100.00;61778.28;5042440;28;20029;-75
2023/04/12 07:58:18;;;;;;;39.30;5.23;;;;;;;-139.84;100.00;61778.28;5044565;28;20362;-75
2023/04/12 08:00:47;;;;;;;45.40;4.82;;;;;;;-139.84;100.00;61778.28;5043444;28;20430;-76
2023/04/12 08:03:13;;;;;;;36.03;5.50;;;;;;;-139.84;100.00;61778.28;5043038;28;20411;-75
2023/04/12 08:05:39;;;;;;;29.63;6.28;;;;;;;-139.84;100.00;61778.28;5027758;28;20033;-75
2023/04/12 08:08:05;;;;;;;26.97;5.67;;;;;;;-139.84;100.00;61778.28;5026875;28;20106;-76
2023/04/12 08:10:31;;;;;;;35.60;6.77;;;;;;;-139.84;100.00;61778.28;5025092;28;20039;-75
2023/04/12 08:12:57;;;;;;;43.17;6.27;;;;;;;-139.84;100.00;61778.28;5042371;28;20037;-76
2023/04/12 08:15:22;;;;;;;49.37;7.10;;;;;;;-139.84;100.00;61778.28;5044392;28;20096;-76
2023/04/12 08:17:48;;;;;;;36.35;5.22;;;;;;;-139.84;100.00;61778.28;5041816;28;20040;-75
2023/04/12 08:20:16;;;;;;;55.43;6.47;;;;;;;-139.84;100.00;61778.28;5045273;28;20036;-75
2023/04/12 08:22:42;;;;;;;44.22;5.35;;;;;;;-139.84;100.00;61778.28;5045014;28;20029;-76
2023/04/12 08:25:08;;;;;;;34.88;5.15;;;;;;;-139.84;100.00;61778.28;5044354;28;20282;-75
2023/04/12 08:27:33;;;;;;;41.90;6.50;;;;;;;-139.84;100.00;61778.28;5043391;28;20036;-75
2023/04/12 08:29:59;;;;;;;40.63;5.13;;;;;;;-139.84;100.00;61778.28;5044458;28;20397;-75
2023/04/12 08:32:24;;;;;;;30.30;5.63;;;;;;;-139.84;100.00;61778.28;5043404;28;20041;-74
2023/04/12 08:34:51;;;;;;;40.93;6.53;;;;;;;-139.84;100.00;61778.28;5044015;28;20037;-77
2023/04/12 08:37:16;;;;;;;44.08;6.60;;;;;;;-139.84;100.00;61778.28;5041310;28;20029;-75
2023/04/12 08:39:42;;;;;;;39.13;4.37;;;;;;;-139.84;100.00;61778.28;5044709;28;20389;-75
2023/04/12 08:42:07;;;;;;;44.83;7.17;;;;;;;-139.84;100.00;61778.28;5026657;28;20061;-76
2023/04/12 08:44:35;;;;;;;39.20;5.80;;;;;;;-139.84;100.00;61778.28;5031833;28;20029;-76
2023/04/12 08:47:02;;;;;;;28.63;6.00;;;;;;;-139.84;100.00;61778.28;5043234;28;20049;-75
2023/04/12 08:49:29;;;;;;;;;;;;;;;-139.84;100.00;61778.28;5045535;28;20036;-77
2023/04/12 08:51:57;;;;;;;39.17;5.05;;;;;;;-139.84;100.00;61778.28;5045910;28;19952;-77
2023/04/12 08:54:24;;;;;;;39.55;5.47;;;;;;;-139.84;100.00;61778.28;5044311;28;20033;-76
2023/04/12 08:56:52;;;;;;;43.30;5.25;;;;;;;-139.84;100.00;61778.28;5042858;28;20063;-76
2023/04/12 08:59:18;;;;;;;36.50;7.00;;;;;;;-139.84;100.00;61778.28;5029851;28;20120;-76
2023/04/12 09:01:44;;;;;;;36.92;6.45;;;;;;;-139.84;100.00;61778.28;5030471;28;20025;-76
2023/04/12 09:04:10;;;;;;;40.27;5.40;;;;;;;-139.84;100.00;61778.28;5042614;28;20043;-76
2023/04/12 09:06:36;;;;;;;26.85;4.47;;;;;;;-139.84;100.00;61778.28;5046095;28;20519;-76
2023/04/12 09:09:05;;;;;;;28.67;5.10;;;;;;;-139.84;100.00;61778.28;5047403;28;20033;-76
2023/04/12 09:11:31;;;;;;;27.55;5.55;;;;;;;-139.84;100.00;61778.28;5045877;28;20123;-78
2023/04/12 09:13:57;;;;;;;31.88;5.40;;;;;;;-139.84;100.00;61778.28;5042035;28;20051;-77
2023/04/12 09:16:39;;;;;;;28.13;4.67;;;;;;;-139.84;100.00;61778.28;5042619;28;20037;-78
2023/04/12 09:19:05;;;;;;;25.33;4.10;;;;;;;-139.84;100.00;61778.28;5043857;28;20057;-78
2023/04/12 09:21:33;;;;;;;28.57;4.83;;;;;;;-139.84;100.00;61778.28;5042508;28;20064;-78
2023/04/12 09:24:11;;;;;;;27.60;4.72;;;;;;;-139.84;100.00;61778.28;5041385;28;20021;-77
2023/04/12 09:26:37;;;;;;;27.58;4.40;;;;;;;-139.84;100.00;61778.28;5045252;28;20183;-77
2023/04/12 09:29:03;;;;;;;23.33;4.00;;;;;;;-139.84;100.00;61778.28;5044799;28;20061;-78
2023/04/12 09:31:29;;;;;;;33.45;4.05;;;;;;;-139.84;100.00;61778.28;5040461;28;20395;-78
2023/04/12 09:34:07;;;;;;;26.13;4.00;;;;;;;-139.84;100.00;61778.28;5046248;28;20033;-77
2023/04/12 09:36:39;;;;;;;26.13;4.18;;;;;;;-139.84;100.00;61778.28;5040537;28;20029;-76
2023/04/12 09:39:06;;;;;;;27.88;4.43;;;;;;;-139.84;100.00;61778.28;5047122;28;20043;-77
2023/04/12 09:41:32;;;;;;;24.15;4.40;;;;;;;-139.84;100.00;61778.28;5043188;28;20029;-76
2023/04/12 09:43:58;;;;;;;28.07;4.40;;;;;;;-139.84;100.00;61778.28;5042347;28;20040;-78
2023/04/12 09:46:24;;;;;;;26.77;3.67;;;;;;;-139.84;100.00;61778.28;5040961;28;20029;-77
2023/04/12 09:48:50;;;;;;;29.10;4.43;;;;;;;-139.84;100.00;61778.28;5040767;28;20091;-77
2023/04/12 09:51:42;;;;;;;;;;;;;;;-139.84;100.00;61778.28;5040851;28;20041;-74
2023/04/12 09:54:08;;;;;;;19.52;3.63;;;;;;;-139.84;100.00;61778.28;5039264;28;19924;-76
2023/04/12 09:56:35;;;;;;;31.67;3.50;;;;;;;-139.84;100.00;61778.28;5043634;28;20378;-76
2023/04/12 09:59:03;;;;;;;16.90;2.92;;;;;;;-139.84;100.00;61778.28;5027484;28;20083;-75
2023/04/12 10:01:37;;;;;;;24.02;4.00;;;;;;;-139.84;100.00;61778.28;5042356;28;20552;-75
2023/04/12 10:04:05;;;;;;;28.52;4.10;;;;;;;-139.84;100.00;61778.28;5048874;28;20468;-75
2023/04/12 10:06:32;;;;;;;26.20;3.63;;;;;;;-139.84;100.00;61778.28;5047185;28;20397;-75
2023/04/12 10:08:57;;;;;;;32.85;4.05;;;;;;;-139.84;100.00;61778.28;5044671;28;20028;-75
2023/04/12 10:11:26;;;;;;;24.90;4.10;;;;;;;-139.84;100.00;61778.28;5042441;28;20029;-76
2023/04/12 10:13:53;;;;;;;18.85;3.90;;;;;;;-139.84;100.00;61778.28;5040906;28;20032;-75
2023/04/12 10:16:19;;;;;;;19.65;3.63;;;;;;;-139.84;100.00;61778.28;5040654;28;20120;-76
2023/04/12 10:18:46;;;;;;;;;;;;;;;-139.84;100.00;61778.28;5045402;28;20518;-76
2023/04/12 10:21:12;;;;;;;24.15;3.30;;;;;;;-139.84;100.00;61778.28;5041314;28;19917;-75
2023/04/12 10:23:38;;;;;;;20.95;2.88;;;;;;;-139.84;100.00;61778.28;5029877;28;20032;-75
2023/04/12 10:26:04;;;;;;;13.73;3.17;;;;;;;-139.84;100.00;61778.28;5024637;28;20033;-75
2023/04/12 10:28:29;;;;;;;19.40;2.83;;;;;;;-139.84;100.00;61778.28;5047300;28;20082;-75
2023/04/12 10:30:58;;;;;;;14.93;3.27;;;;;;;-139.84;100.00;61778.28;5046461;28;20099;-75
2023/04/12 10:33:26;;;;;;;15.80;3.17;;;;;;;-139.84;100.00;61778.28;5052977;28;20426;-75
2023/04/12 10:35:55;;;;;;;15.65;3.08;;;;;;;-139.84;100.00;61778.28;5046313;28;20396;-74
2023/04/12 10:38:22;;;;;;;23.42;3.17;;;;;;;-139.84;100.00;61778.28;5043364;28;20021;-74
2023/04/12 10:41:05;;;;;;;;;;;;;;;-139.84;100.00;61778.28;5045152;28;20548;-74
2023/04/12 10:43:30;;;;;;;20.15;3.03;;;;;;;-139.84;100.00;61778.28;5024747;28;19920;-74
2023/04/12 10:45:57;;;;;;;13.57;2.50;;;;;;;-139.84;100.00;61778.28;5043922;28;20024;-74
2023/04/12 10:48:30;;;;;;;;;;;;;;;-139.84;100.00;61778.28;5039403;28;20097;-74
2023/04/12 10:51:25;;;;;;;19.85;2.85;;;;;;;-139.84;100.00;61778.28;5041573;28;20360;-74
2023/04/12 10:54:11;;;;;;;24.02;3.10;;;;;;;-139.84;100.00;61778.28;5043524;28;20037;-73
2023/04/12 10:56:44;;;;;;;19.27;3.22;;;;;;;-139.84;100.00;61778.28;5026903;28;20025;-74
2023/04/12 10:59:13;;;;;;;21.75;3.58;;;;;;;-139.84;100.00;61778.28;5041579;28;20082;-74
2023/04/12 11:01:40;;;;;;;21.92;3.35;;;;;;;-139.84;100.00;61778.28;5041049;28;20058;-74
2023/04/12 11:04:16;;;;;;;17.65;3.85;;;;;;;-139.84;100.00;61778.28;5028471;28;20084;-74
2023/04/12 11:06:48;;;;;;;11.35;2.78;;;;;;;-139.84;100.00;61778.28;5044423;28;20048;-74
2023/04/12 11:09:21;;;;;;;10.73;2.25;;;;;;;-139.84;100.00;61778.28;5046729;28;20035;-74
2023/04/12 11:11:48;;;;;;;14.73;2.60;;;;;;;-139.84;100.00;61778.28;5047979;28;20059;-74